Vejrstation Sortsø Strand
Vejrstation Sortsø Strands historiske vejrdata
 
Daily Summary for May 08, 2021 Units:  Metric    English   Both
Daily Weekly Monthly Yearly Custom
  Current: High: Low: Average:
Temperature: 8.8 °C 12.2 °C 5.4 °C 8.7 °C
Dew Point: 6.4 °C 6.5 °C 3.4 °C 4.9 °C
Humidity: 85% 90% 59% 78%
Wind Speed: 18km/h 37km/h 0km/h 18.9km/h
Wind Gust: 11km/h 23km/h - -
WindESE - - SSW
Pressure: 1010.9 hPa 1015.3 hPa 1010.9 hPa -
Precipitation: 0.00 mm      
Historical Graphs
 
 
Tabular Data for May 08, 2021
Time Temperature Dew Point Pressure Wind Wind Speed Wind Gust Humidity Rainfall Rate (Hourly) solar
00:04 5.5 °C 3.8 °C 1011.3 hPa SSW 6 km/h 2 km/h 89% 0.00 mm 0.00 W/m2
00:09 5.4 °C 3.8 °C 1011.3 hPa SSW 10 km/h 5 km/h 89% 0.00 mm 0.00 W/m2
00:14 5.4 °C 3.8 °C 1011.3 hPa SSW 6 km/h 3 km/h 89% 0.00 mm 0.00 W/m2
00:19 5.4 °C 3.7 °C 1011.3 hPa SSW 5 km/h 2 km/h 89% 0.00 mm 0.00 W/m2
00:24 5.4 °C 3.7 °C 1011.4 hPa SSW 15 km/h 6 km/h 89% 0.00 mm 0.00 W/m2
00:29 5.5 °C 3.8 °C 1011.5 hPa SSW 15 km/h 6 km/h 89% 0.00 mm 0.00 W/m2
00:34 5.6 °C 4.1 °C 1011.5 hPa SSW 15 km/h 4 km/h 90% 0.00 mm 0.00 W/m2
00:39 5.7 °C 4.2 °C 1011.5 hPa SSW 10 km/h 5 km/h 90% 0.00 mm 0.00 W/m2
00:44 5.8 °C 4.3 °C 1011.6 hPa SSW 10 km/h 8 km/h 90% 0.00 mm 0.00 W/m2
00:49 5.9 °C 4.4 °C 1011.6 hPa SW 15 km/h 7 km/h 90% 0.00 mm 0.00 W/m2
00:54 5.9 °C 4.4 °C 1011.6 hPa SW 11 km/h 7 km/h 90% 0.00 mm 0.00 W/m2
00:59 6.0 °C 4.3 °C 1011.6 hPa SW 17 km/h 5 km/h 89% 0.00 mm 0.00 W/m2
01:04 6.1 °C 4.4 °C 1011.6 hPa SSW 10 km/h 3 km/h 89% 0.00 mm 0.00 W/m2
01:09 6.2 °C 4.5 °C 1011.6 hPa SW 19 km/h 6 km/h 89% 0.00 mm 0.00 W/m2
01:14 6.2 °C 4.6 °C 1011.6 hPa SW 8 km/h 3 km/h 89% 0.00 mm 0.00 W/m2
01:19 6.3 °C 4.6 °C 1011.7 hPa SW 16 km/h 8 km/h 89% 0.00 mm 0.00 W/m2
01:24 6.4 °C 4.7 °C 1011.6 hPa SW 17 km/h 7 km/h 89% 0.00 mm 0.00 W/m2
01:29 6.5 °C 4.8 °C 1011.7 hPa SW 17 km/h 5 km/h 89% 0.00 mm 0.00 W/m2
01:34 6.6 °C 4.9 °C 1011.7 hPa SW 15 km/h 6 km/h 89% 0.00 mm 0.00 W/m2
01:39 6.7 °C 5.0 °C 1011.8 hPa SW 16 km/h 4 km/h 89% 0.00 mm 0.00 W/m2
01:44 6.7 °C 5.1 °C 1011.8 hPa SW 21 km/h 5 km/h 89% 0.00 mm 0.00 W/m2
01:49 6.8 °C 5.1 °C 1011.8 hPa WSW 20 km/h 7 km/h 89% 0.00 mm 0.00 W/m2
01:54 6.8 °C 4.9 °C 1011.8 hPa WSW 24 km/h 11 km/h 88% 0.00 mm 0.00 W/m2
01:59 6.8 °C 4.9 °C 1011.8 hPa WSW 11 km/h 2 km/h 88% 0.00 mm 0.00 W/m2
02:04 6.8 °C 4.9 °C 1011.9 hPa West 21 km/h 11 km/h 88% 0.00 mm 0.00 W/m2
02:09 6.8 °C 5.0 °C 1011.9 hPa WSW 20 km/h 11 km/h 88% 0.00 mm 0.00 W/m2
02:14 6.8 °C 5.0 °C 1012.0 hPa West 19 km/h 4 km/h 88% 0.00 mm 0.00 W/m2
02:19 6.8 °C 5.0 °C 1012.0 hPa SW 19 km/h 7 km/h 88% 0.00 mm 0.00 W/m2
02:24 6.9 °C 5.1 °C 1012.0 hPa SW 24 km/h 10 km/h 88% 0.00 mm 0.00 W/m2
02:29 6.9 °C 4.9 °C 1012.1 hPa West 30 km/h 15 km/h 87% 0.00 mm 0.00 W/m2
02:34 6.9 °C 4.9 °C 1012.1 hPa WSW 19 km/h 14 km/h 87% 0.00 mm 0.00 W/m2
02:39 6.8 °C 4.8 °C 1012.1 hPa SW 26 km/h 14 km/h 87% 0.00 mm 0.00 W/m2
02:44 6.8 °C 4.8 °C 1012.1 hPa WSW 26 km/h 11 km/h 87% 0.00 mm 0.00 W/m2
02:49 6.8 °C 4.8 °C 1012.2 hPa WSW 28 km/h 12 km/h 87% 0.00 mm 0.00 W/m2
02:54 6.8 °C 4.8 °C 1012.2 hPa WSW 19 km/h 10 km/h 87% 0.00 mm 0.00 W/m2
02:59 6.8 °C 4.8 °C 1012.2 hPa SW 19 km/h 4 km/h 87% 0.00 mm 0.00 W/m2
03:04 6.8 °C 4.8 °C 1012.2 hPa SW 19 km/h 12 km/h 87% 0.00 mm 0.00 W/m2
03:09 6.8 °C 4.8 °C 1012.1 hPa SW 23 km/h 8 km/h 87% 0.00 mm 0.00 W/m2
03:14 6.8 °C 4.8 °C 1012.1 hPa West 21 km/h 11 km/h 87% 0.00 mm 0.00 W/m2
03:19 6.8 °C 4.8 °C 1012.2 hPa WSW 17 km/h 8 km/h 87% 0.00 mm 0.00 W/m2
03:24 6.8 °C 4.8 °C 1012.2 hPa WSW 23 km/h 10 km/h 87% 0.00 mm 0.00 W/m2
03:29 6.7 °C 4.7 °C 1012.2 hPa WSW 19 km/h 7 km/h 87% 0.00 mm 0.00 W/m2
03:34 6.7 °C 4.7 °C 1012.3 hPa SW 19 km/h 11 km/h 87% 0.00 mm 0.00 W/m2
03:39 6.7 °C 4.7 °C 1012.3 hPa West 19 km/h 12 km/h 87% 0.00 mm 0.00 W/m2
03:44 6.7 °C 4.7 °C 1012.2 hPa WNW 19 km/h 14 km/h 87% 0.00 mm 0.00 W/m2
03:49 6.7 °C 4.7 °C 1012.2 hPa West 24 km/h 15 km/h 87% 0.00 mm 0.00 W/m2
03:54 6.7 °C 4.7 °C 1012.3 hPa West 24 km/h 15 km/h 87% 0.00 mm 0.00 W/m2
03:59 6.8 °C 4.8 °C 1012.3 hPa West 24 km/h 14 km/h 87% 0.00 mm 0.00 W/m2
04:04 6.8 °C 4.8 °C 1012.3 hPa West 28 km/h 18 km/h 87% 0.00 mm 0.00 W/m2
04:09 6.8 °C 4.8 °C 1012.3 hPa West 37 km/h 17 km/h 87% 0.00 mm 0.00 W/m2
04:14 6.8 °C 4.7 °C 1012.4 hPa WSW 37 km/h 15 km/h 86% 0.00 mm 0.00 W/m2
04:19 6.8 °C 4.7 °C 1012.4 hPa West 21 km/h 13 km/h 86% 0.00 mm 0.00 W/m2
04:24 6.9 °C 4.7 °C 1012.4 hPa West 20 km/h 11 km/h 86% 0.00 mm 0.00 W/m2
04:29 6.8 °C 4.8 °C 1012.4 hPa WSW 17 km/h 7 km/h 87% 0.00 mm 0.00 W/m2
04:34 6.9 °C 4.9 °C 1012.4 hPa WSW 15 km/h 6 km/h 87% 0.00 mm 0.00 W/m2
04:39 6.9 °C 4.9 °C 1012.5 hPa WSW 19 km/h 13 km/h 87% 0.00 mm 0.00 W/m2
04:44 6.9 °C 4.9 °C 1012.5 hPa West 26 km/h 16 km/h 87% 0.00 mm 0.00 W/m2
04:49 6.9 °C 4.9 °C 1012.5 hPa WSW 19 km/h 8 km/h 87% 0.00 mm 0.00 W/m2
04:54 6.9 °C 4.9 °C 1012.5 hPa West 23 km/h 11 km/h 87% 0.00 mm 0.00 W/m2
04:59 6.9 °C 4.9 °C 1012.6 hPa West 23 km/h 11 km/h 87% 0.00 mm 0.00 W/m2
05:04 6.9 °C 4.9 °C 1012.6 hPa West 23 km/h 13 km/h 87% 0.00 mm 0.00 W/m2
05:09 6.9 °C 4.8 °C 1012.7 hPa West 21 km/h 12 km/h 86% 0.00 mm 0.00 W/m2
05:14 6.9 °C 4.8 °C 1012.7 hPa WSW 23 km/h 13 km/h 86% 0.00 mm 0.00 W/m2
05:19 6.9 °C 4.8 °C 1012.7 hPa West 21 km/h 15 km/h 86% 0.00 mm 0.00 W/m2
05:24 6.9 °C 4.8 °C 1012.7 hPa West 28 km/h 14 km/h 86% 0.00 mm 0.00 W/m2
05:29 7.0 °C 4.8 °C 1012.8 hPa West 28 km/h 15 km/h 86% 0.00 mm 0.00 W/m2
05:34 7.0 °C 4.8 °C 1012.8 hPa West 21 km/h 12 km/h 86% 0.00 mm 0.00 W/m2
05:39 7.0 °C 4.8 °C 1012.9 hPa WSW 26 km/h 14 km/h 86% 0.00 mm 0.00 W/m2
05:44 6.9 °C 4.8 °C 1012.9 hPa SW 19 km/h 11 km/h 86% 0.00 mm 0.00 W/m2
05:49 6.9 °C 4.7 °C 1012.9 hPa WSW 19 km/h 9 km/h 86% 0.00 mm 0.00 W/m2
05:54 6.9 °C 4.7 °C 1012.9 hPa WSW 21 km/h 8 km/h 86% 0.00 mm 0.00 W/m2
05:59 6.8 °C 4.7 °C 1013.0 hPa WSW 19 km/h 10 km/h 86% 0.00 mm 0.00 W/m2
06:04 6.8 °C 4.5 °C 1013.0 hPa West 19 km/h 11 km/h 85% 0.00 mm 0.00 W/m2
06:09 6.8 °C 4.4 °C 1013.1 hPa West 21 km/h 15 km/h 85% 0.00 mm 0.00 W/m2
06:14 6.8 °C 4.4 °C 1013.1 hPa West 30 km/h 17 km/h 85% 0.00 mm 0.00 W/m2
06:19 6.8 °C 4.3 °C 1013.2 hPa West 32 km/h 16 km/h 84% 0.00 mm 0.00 W/m2
06:24 6.8 °C 4.3 °C 1013.2 hPa West 28 km/h 16 km/h 84% 0.00 mm 0.00 W/m2
06:29 6.8 °C 4.3 °C 1013.2 hPa WSW 28 km/h 18 km/h 84% 0.00 mm 0.00 W/m2
06:34 6.8 °C 4.3 °C 1013.3 hPa West 26 km/h 16 km/h 84% 0.00 mm 0.00 W/m2
06:39 6.8 °C 4.3 °C 1013.3 hPa West 21 km/h 14 km/h 84% 0.00 mm 0.00 W/m2
06:44 6.7 °C 4.2 °C 1013.3 hPa West 21 km/h 13 km/h 84% 0.00 mm 0.00 W/m2
06:49 6.7 °C 4.2 °C 1013.4 hPa WNW 23 km/h 15 km/h 84% 0.00 mm 0.00 W/m2
06:54 6.8 °C 4.2 °C 1013.5 hPa WNW 23 km/h 16 km/h 84% 0.00 mm 0.00 W/m2
06:59 6.9 °C 4.2 °C 1013.5 hPa West 30 km/h 16 km/h 83% 0.00 mm 0.00 W/m2
07:04 6.9 °C 4.1 °C 1013.6 hPa West 23 km/h 17 km/h 82% 0.00 mm 0.00 W/m2
07:09 7.0 °C 3.9 °C 1013.6 hPa West 20 km/h 14 km/h 81% 0.00 mm 0.00 W/m2
07:14 7.1 °C 4.0 °C 1013.6 hPa West 30 km/h 16 km/h 81% 0.00 mm 0.00 W/m2
07:19 7.2 °C 3.9 °C 1013.6 hPa West 28 km/h 17 km/h 80% 0.00 mm 0.00 W/m2
07:24 7.2 °C 3.9 °C 1013.7 hPa West 22 km/h 13 km/h 80% 0.00 mm 0.00 W/m2
07:29 7.2 °C 3.8 °C 1013.7 hPa West 23 km/h 13 km/h 79% 0.00 mm 0.00 W/m2
07:34 7.3 °C 4.1 °C 1013.8 hPa WSW 22 km/h 13 km/h 80% 0.00 mm 0.00 W/m2
07:39 7.4 °C 4.2 °C 1013.8 hPa West 23 km/h 14 km/h 80% 0.00 mm 0.00 W/m2
07:44 7.4 °C 3.8 °C 1013.8 hPa West 23 km/h 18 km/h 78% 0.00 mm 0.00 W/m2
07:49 7.2 °C 3.7 °C 1013.8 hPa West 22 km/h 16 km/h 78% 0.00 mm 0.00 W/m2
07:54 7.3 °C 3.9 °C 1013.8 hPa WSW 21 km/h 14 km/h 79% 0.00 mm 0.00 W/m2
07:59 7.3 °C 3.9 °C 1013.9 hPa WSW 26 km/h 17 km/h 79% 0.00 mm 0.00 W/m2
08:04 7.4 °C 4.1 °C 1014.0 hPa West 23 km/h 15 km/h 79% 0.00 mm 0.00 W/m2
08:09 7.6 °C 4.1 °C 1014.0 hPa West 24 km/h 13 km/h 79% 0.00 mm 0.00 W/m2
08:14 7.6 °C 3.8 °C 1014.1 hPa West 28 km/h 18 km/h 77% 0.00 mm 0.00 W/m2
08:19 7.6 °C 3.8 °C 1014.0 hPa West 26 km/h 20 km/h 77% 0.00 mm 0.00 W/m2
08:24 7.7 °C 3.9 °C 1014.1 hPa West 30 km/h 17 km/h 77% 0.00 mm 0.00 W/m2
08:29 7.8 °C 3.8 °C 1014.0 hPa WNW 19 km/h 12 km/h 76% 0.00 mm 0.00 W/m2
08:34 7.9 °C 3.9 °C 1014.1 hPa West 17 km/h 10 km/h 76% 0.00 mm 0.00 W/m2
08:39 8.0 °C 4.0 °C 1014.1 hPa WSW 28 km/h 15 km/h 76% 0.00 mm 0.00 W/m2
08:44 8.1 °C 4.1 °C 1014.2 hPa WSW 23 km/h 13 km/h 76% 0.00 mm 0.00 W/m2
08:49 8.0 °C 4.0 °C 1014.3 hPa West 32 km/h 17 km/h 76% 0.00 mm 0.00 W/m2
08:54 8.1 °C 4.1 °C 1014.3 hPa WSW 32 km/h 17 km/h 76% 0.00 mm 0.00 W/m2
08:59 7.9 °C 3.9 °C 1014.4 hPa West 24 km/h 14 km/h 76% 0.00 mm 0.00 W/m2
09:04 8.0 °C 3.9 °C 1014.4 hPa WSW 32 km/h 21 km/h 76% 0.00 mm 0.00 W/m2
09:09 8.1 °C 3.9 °C 1014.4 hPa West 24 km/h 17 km/h 75% 0.00 mm 0.00 W/m2
09:14 8.2 °C 4.0 °C 1014.5 hPa West 29 km/h 17 km/h 75% 0.00 mm 0.00 W/m2
09:19 8.2 °C 4.2 °C 1014.5 hPa West 30 km/h 13 km/h 76% 0.00 mm 0.00 W/m2
09:24 8.4 °C 4.4 °C 1014.5 hPa West 21 km/h 11 km/h 76% 0.00 mm 0.00 W/m2
09:29 8.4 °C 4.2 °C 1014.6 hPa WSW 23 km/h 16 km/h 75% 0.00 mm 0.00 W/m2
09:34 8.5 °C 4.1 °C 1014.6 hPa West 26 km/h 14 km/h 74% 0.00 mm 0.00 W/m2
09:39 8.6 °C 4.4 °C 1014.7 hPa West 27 km/h 11 km/h 75% 0.00 mm 0.00 W/m2
09:44 8.4 °C 4.3 °C 1014.7 hPa West 28 km/h 15 km/h 75% 0.00 mm 0.00 W/m2
09:49 8.2 °C 4.2 °C 1014.8 hPa West 21 km/h 16 km/h 76% 0.00 mm 0.00 W/m2
09:54 8.2 °C 4.2 °C 1014.8 hPa West 19 km/h 12 km/h 76% 0.00 mm 0.00 W/m2
09:59 8.6 °C 4.8 °C 1014.8 hPa West 19 km/h 11 km/h 77% 0.00 mm 0.00 W/m2
10:04 8.7 °C 4.7 °C 1014.9 hPa WSW 23 km/h 15 km/h 76% 0.00 mm 0.00 W/m2
10:09 8.9 °C 4.7 °C 1014.9 hPa SW 22 km/h 14 km/h 75% 0.00 mm 0.00 W/m2
10:14 9.1 °C 4.7 °C 1015.0 hPa WSW 32 km/h 16 km/h 75% 0.00 mm 0.00 W/m2
10:19 9.0 °C 4.4 °C 1015.0 hPa West 28 km/h 15 km/h 74% 0.00 mm 0.00 W/m2
10:24 9.0 °C 4.8 °C 1015.0 hPa West 19 km/h 11 km/h 75% 0.00 mm 0.00 W/m2
10:29 9.2 °C 4.9 °C 1015.1 hPa West 26 km/h 16 km/h 75% 0.00 mm 0.00 W/m2
10:34 9.2 °C 4.4 °C 1015.1 hPa West 19 km/h 14 km/h 72% 0.00 mm 0.00 W/m2
10:39 9.0 °C 4.4 °C 1015.1 hPa West 21 km/h 11 km/h 74% 0.00 mm 0.00 W/m2
10:44 8.8 °C 4.8 °C 1015.1 hPa West 20 km/h 12 km/h 76% 0.00 mm 0.00 W/m2
10:49 9.1 °C 5.0 °C 1015.2 hPa West 21 km/h 15 km/h 76% 0.00 mm 0.00 W/m2
10:54 9.0 °C 4.8 °C 1015.3 hPa WSW 26 km/h 15 km/h 75% 0.00 mm 0.00 W/m2
10:59 9.1 °C 4.4 °C 1015.3 hPa WSW 21 km/h 14 km/h 73% 0.00 mm 0.00 W/m2
11:04 9.2 °C 4.5 °C 1015.2 hPa WSW 23 km/h 15 km/h 73% 0.00 mm 0.00 W/m2
11:09 9.2 °C 4.4 °C 1015.2 hPa WSW 24 km/h 13 km/h 72% 0.00 mm 0.00 W/m2
11:14 9.2 °C 4.6 °C 1015.3 hPa WSW 19 km/h 10 km/h 73% 0.00 mm 0.00 W/m2
11:19 9.2 °C 4.4 °C 1015.2 hPa WSW 24 km/h 15 km/h 73% 0.00 mm 0.00 W/m2
11:24 9.2 °C 4.5 °C 1015.2 hPa WSW 24 km/h 12 km/h 73% 0.00 mm 0.00 W/m2
11:29 9.3 °C 4.5 °C 1015.2 hPa WSW 24 km/h 9 km/h 72% 0.00 mm 0.00 W/m2
11:34 9.4 °C 4.5 °C 1015.2 hPa SW 23 km/h 13 km/h 72% 0.00 mm 0.00 W/m2
11:39 9.8 °C 4.8 °C 1015.2 hPa SW 23 km/h 13 km/h 71% 0.00 mm 0.00 W/m2
11:44 9.9 °C 4.7 °C 1015.2 hPa SW 24 km/h 16 km/h 70% 0.00 mm 0.00 W/m2
11:49 10.1 °C 5.1 °C 1015.2 hPa SW 24 km/h 14 km/h 71% 0.00 mm 0.00 W/m2
11:54 10.1 °C 4.9 °C 1015.3 hPa WSW 24 km/h 15 km/h 70% 0.00 mm 0.00 W/m2
11:59 9.8 °C 4.8 °C 1015.3 hPa SW 24 km/h 16 km/h 71% 0.00 mm 0.00 W/m2
12:04 10.1 °C 5.1 °C 1015.2 hPa SSW 23 km/h 12 km/h 71% 0.00 mm 0.00 W/m2
12:09 10.1 °C 4.7 °C 1015.2 hPa SW 21 km/h 13 km/h 69% 0.00 mm 0.00 W/m2
12:14 9.7 °C 4.7 °C 1015.2 hPa SW 19 km/h 13 km/h 71% 0.00 mm 0.00 W/m2
12:19 9.9 °C 4.8 °C 1015.1 hPa WSW 26 km/h 17 km/h 71% 0.00 mm 0.00 W/m2
12:24 10.1 °C 4.8 °C 1015.1 hPa West 26 km/h 18 km/h 70% 0.00 mm 0.00 W/m2
12:29 10.2 °C 4.9 °C 1015.1 hPa West 22 km/h 17 km/h 70% 0.00 mm 0.00 W/m2
12:34 10.1 °C 4.7 °C 1015.0 hPa WSW 21 km/h 14 km/h 69% 0.00 mm 0.00 W/m2
12:39 9.9 °C 4.8 °C 1015.0 hPa SW 19 km/h 12 km/h 71% 0.00 mm 0.00 W/m2
12:44 9.8 °C 4.8 °C 1015.0 hPa WSW 24 km/h 7 km/h 71% 0.00 mm 0.00 W/m2
12:49 9.8 °C 5.0 °C 1015.0 hPa SW 24 km/h 16 km/h 72% 0.00 mm 0.00 W/m2
12:54 9.8 °C 4.3 °C 1015.2 hPa WSW 24 km/h 15 km/h 69% 0.00 mm 0.00 W/m2
12:59 9.6 °C 4.6 °C 1015.1 hPa SW 19 km/h 14 km/h 71% 0.00 mm 0.00 W/m2
13:04 9.9 °C 5.0 °C 1015.1 hPa WSW 21 km/h 12 km/h 72% 0.00 mm 0.00 W/m2
13:09 10.0 °C 5.2 °C 1015.1 hPa West 17 km/h 9 km/h 72% 0.00 mm 0.00 W/m2
13:14 10.1 °C 5.4 °C 1015.1 hPa WSW 21 km/h 15 km/h 73% 0.00 mm 0.00 W/m2
13:19 10.4 °C 5.4 °C 1015.0 hPa WSW 24 km/h 15 km/h 72% 0.00 mm 0.00 W/m2
13:24 10.6 °C 5.3 °C 1015.0 hPa SW 24 km/h 12 km/h 70% 0.00 mm 0.00 W/m2
13:29 10.5 °C 4.7 °C 1015.0 hPa SW 23 km/h 16 km/h 68% 0.00 mm 0.00 W/m2
13:34 10.3 °C 4.7 °C 1015.0 hPa SW 26 km/h 20 km/h 69% 0.00 mm 0.00 W/m2
13:39 10.4 °C 4.8 °C 1014.9 hPa SSW 30 km/h 16 km/h 69% 0.00 mm 0.00 W/m2
13:44 10.5 °C 4.6 °C 1014.9 hPa SW 17 km/h 9 km/h 67% 0.00 mm 0.00 W/m2
13:49 10.5 °C 5.0 °C 1014.9 hPa South 17 km/h 6 km/h 69% 0.00 mm 0.00 W/m2
13:54 10.6 °C 4.8 °C 1014.9 hPa SW 15 km/h 5 km/h 68% 0.00 mm 0.00 W/m2
13:59 10.6 °C 4.7 °C 1014.9 hPa SW 19 km/h 8 km/h 67% 0.00 mm 0.00 W/m2
14:04 10.4 °C 4.9 °C 1014.9 hPa SW 10 km/h 2 km/h 69% 0.00 mm 0.00 W/m2
14:09 10.8 °C 5.1 °C 1014.9 hPa SSW 21 km/h 9 km/h 69% 0.00 mm 0.00 W/m2
14:14 11.1 °C 4.9 °C 1014.9 hPa SSW 21 km/h 12 km/h 66% 0.00 mm 0.00 W/m2
14:19 11.1 °C 4.7 °C 1014.9 hPa SW 15 km/h 6 km/h 65% 0.00 mm 0.00 W/m2
14:24 11.1 °C 5.1 °C 1014.9 hPa SSW 21 km/h 8 km/h 67% 0.00 mm 0.00 W/m2
14:29 11.1 °C 4.8 °C 1014.9 hPa SSW 23 km/h 17 km/h 65% 0.00 mm 0.00 W/m2
14:34 11.2 °C 4.6 °C 1014.8 hPa SW 17 km/h 8 km/h 64% 0.00 mm 0.00 W/m2
14:39 11.3 °C 4.7 °C 1014.8 hPa SW 17 km/h 7 km/h 64% 0.00 mm 0.00 W/m2
14:44 11.4 °C 4.9 °C 1014.8 hPa SW 19 km/h 9 km/h 64% 0.00 mm 0.00 W/m2
14:49 11.4 °C 4.7 °C 1014.8 hPa WSW 21 km/h 14 km/h 63% 0.00 mm 0.00 W/m2
14:54 11.4 °C 4.7 °C 1014.7 hPa WSW 21 km/h 15 km/h 63% 0.00 mm 0.00 W/m2
14:59 11.6 °C 4.7 °C 1014.8 hPa SSW 27 km/h 11 km/h 63% 0.00 mm 0.00 W/m2
15:04 11.6 °C 4.2 °C 1014.7 hPa SW 28 km/h 11 km/h 61% 0.00 mm 0.00 W/m2
15:09 11.4 °C 4.2 °C 1014.7 hPa SW 19 km/h 11 km/h 62% 0.00 mm 0.00 W/m2
15:14 11.6 °C 5.0 °C 1014.7 hPa West 17 km/h 6 km/h 65% 0.00 mm 0.00 W/m2
15:19 11.7 °C 5.0 °C 1014.7 hPa SW 19 km/h 12 km/h 64% 0.00 mm 0.00 W/m2
15:24 11.4 °C 4.0 °C 1014.7 hPa SW 19 km/h 6 km/h 61% 0.00 mm 0.00 W/m2
15:29 11.4 °C 4.1 °C 1014.6 hPa SW 24 km/h 14 km/h 61% 0.00 mm 0.00 W/m2
15:34 11.4 °C 3.4 °C 1014.6 hPa SSW 34 km/h 19 km/h 59% 0.00 mm 0.00 W/m2
15:39 11.2 °C 4.2 °C 1014.6 hPa SSW 16 km/h 5 km/h 62% 0.00 mm 0.00 W/m2
15:44 11.4 °C 4.3 °C 1014.6 hPa SSW 19 km/h 8 km/h 62% 0.00 mm 0.00 W/m2
15:49 11.3 °C 4.1 °C 1014.5 hPa SSW 8 km/h 3 km/h 61% 0.00 mm 0.00 W/m2
15:54 11.2 °C 4.8 °C 1014.4 hPa South 19 km/h 9 km/h 65% 0.00 mm 0.00 W/m2
15:59 11.2 °C 4.8 °C 1014.4 hPa South 19 km/h 7 km/h 65% 0.00 mm 0.00 W/m2
16:04 11.2 °C 4.8 °C 1014.4 hPa SSW 19 km/h 10 km/h 65% 0.00 mm 0.00 W/m2
16:09 11.7 °C 5.5 °C 1014.3 hPa SSW 15 km/h 7 km/h 66% 0.00 mm 0.00 W/m2
16:14 12.2 °C 6.1 °C 1014.3 hPa SSW 17 km/h 7 km/h 67% 0.00 mm 0.00 W/m2
16:19 12.2 °C 5.8 °C 1014.3 hPa South 17 km/h 7 km/h 65% 0.00 mm 0.00 W/m2
16:24 12.0 °C 5.2 °C 1014.2 hPa SSE 10 km/h 7 km/h 63% 0.00 mm 0.00 W/m2
16:29 11.8 °C 4.9 °C 1014.1 hPa South 9 km/h 4 km/h 63% 0.00 mm 0.00 W/m2
16:34 11.7 °C 5.1 °C 1014.1 hPa SSE 13 km/h 8 km/h 64% 0.00 mm 0.00 W/m2
16:39 11.6 °C 4.8 °C 1014.0 hPa South 13 km/h 8 km/h 63% 0.00 mm 0.00 W/m2
16:44 11.6 °C 5.0 °C 1013.9 hPa South 15 km/h 7 km/h 64% 0.00 mm 0.00 W/m2
16:49 11.7 °C 5.1 °C 1013.9 hPa South 19 km/h 9 km/h 64% 0.00 mm 0.00 W/m2
16:54 11.8 °C 5.2 °C 1013.9 hPa South 17 km/h 9 km/h 64% 0.00 mm 0.00 W/m2
16:59 11.7 °C 4.6 °C 1013.9 hPa South 11 km/h 7 km/h 62% 0.00 mm 0.00 W/m2
17:04 11.6 °C 5.2 °C 1014.0 hPa SSW 19 km/h 10 km/h 65% 0.00 mm 0.00 W/m2
17:09 11.6 °C 5.4 °C 1014.0 hPa South 15 km/h 6 km/h 66% 0.00 mm 0.00 W/m2
17:14 11.6 °C 5.4 °C 1013.9 hPa South 21 km/h 13 km/h 66% 0.00 mm 0.00 W/m2
17:19 11.6 °C 5.0 °C 1013.9 hPa SSE 13 km/h 9 km/h 64% 0.00 mm 0.00 W/m2
17:24 11.4 °C 5.3 °C 1013.9 hPa SSE 10 km/h 3 km/h 66% 0.00 mm 0.00 W/m2
17:29 11.5 °C 5.4 °C 1013.9 hPa SSE 9 km/h 4 km/h 66% 0.00 mm 0.00 W/m2
17:34 11.4 °C 5.3 °C 1013.9 hPa SE 15 km/h 6 km/h 66% 0.00 mm 0.00 W/m2
17:39 11.4 °C 5.1 °C 1013.8 hPa SSE 17 km/h 8 km/h 65% 0.00 mm 0.00 W/m2
17:44 11.5 °C 5.1 °C 1013.7 hPa SSE 15 km/h 8 km/h 65% 0.00 mm 0.00 W/m2
17:49 11.5 °C 5.2 °C 1013.8 hPa SSE 11 km/h 6 km/h 65% 0.00 mm 0.00 W/m2
17:54 11.5 °C 5.3 °C 1013.7 hPa SSE 6 km/h 1 km/h 66% 0.00 mm 0.00 W/m2
17:59 11.4 °C 5.1 °C 1013.7 hPa SSE 11 km/h 6 km/h 65% 0.00 mm 0.00 W/m2
18:04 11.4 °C 4.8 °C 1013.7 hPa SE 11 km/h 5 km/h 64% 0.00 mm 0.00 W/m2
18:09 11.3 °C 4.8 °C 1013.6 hPa SE 10 km/h 6 km/h 64% 0.00 mm 0.00 W/m2
18:14 11.2 °C 5.7 °C 1013.6 hPa SE 6 km/h 3 km/h 70% 0.00 mm 0.00 W/m2
18:19 10.9 °C 5.7 °C 1013.5 hPa SE 10 km/h 5 km/h 70% 0.00 mm 0.00 W/m2
18:24 10.7 °C 4.6 °C 1013.5 hPa SE 6 km/h 3 km/h 66% 0.00 mm 0.00 W/m2
18:29 10.8 °C 4.7 °C 1013.4 hPa SE 8 km/h 5 km/h 66% 0.00 mm 0.00 W/m2
18:34 10.9 °C 5.8 °C 1013.4 hPa SE 8 km/h 6 km/h 71% 0.00 mm 0.00 W/m2
18:39 10.8 °C 5.9 °C 1013.3 hPa SE 11 km/h 10 km/h 72% 0.00 mm 0.00 W/m2
18:44 10.5 °C 5.8 °C 1013.3 hPa ESE 15 km/h 10 km/h 74% 0.00 mm 0.00 W/m2
18:49 10.1 °C 5.9 °C 1013.2 hPa ESE 8 km/h 7 km/h 76% 0.00 mm 0.00 W/m2
18:54 9.9 °C 6.1 °C 1013.2 hPa ESE 10 km/h 7 km/h 77% 0.00 mm 0.00 W/m2
18:59 9.9 °C 6.1 °C 1013.2 hPa ESE 10 km/h 8 km/h 77% 0.00 mm 0.00 W/m2
19:04 9.8 °C 6.0 °C 1013.2 hPa ESE 8 km/h 7 km/h 77% 0.00 mm 0.00 W/m2
19:09 9.8 °C 6.0 °C 1013.2 hPa ESE 6 km/h 2 km/h 77% 0.00 mm 0.00 W/m2
19:14 9.8 °C 5.9 °C 1013.1 hPa Calm     77% 0.00 mm 0.00 W/m2
19:19 9.8 °C 6.3 °C 1013.0 hPa ESE 11 km/h 9 km/h 79% 0.00 mm 0.00 W/m2
19:24 9.8 °C 6.5 °C 1012.9 hPa ESE 11 km/h 9 km/h 80% 0.00 mm 0.00 W/m2
19:29 9.6 °C 6.3 °C 1012.9 hPa ESE 11 km/h 9 km/h 80% 0.00 mm 0.00 W/m2
19:34 9.5 °C 6.2 °C 1012.9 hPa ESE 17 km/h 13 km/h 80% 0.00 mm 0.00 W/m2
19:39 9.4 °C 6.3 °C 1012.9 hPa ESE 19 km/h 17 km/h 81% 0.00 mm 0.00 W/m2
19:44 9.3 °C 6.2 °C 1012.9 hPa East 15 km/h 10 km/h 81% 0.00 mm 0.00 W/m2
19:49 9.1 °C 5.8 °C 1012.9 hPa East 9 km/h 8 km/h 80% 0.00 mm 0.00 W/m2
19:54 9.0 °C 5.9 °C 1012.8 hPa East 10 km/h 8 km/h 81% 0.00 mm 0.00 W/m2
19:59 8.9 °C 6.0 °C 1012.6 hPa East 6 km/h 6 km/h 82% 0.00 mm 0.00 W/m2
20:04 8.9 °C 6.0 °C 1012.6 hPa East 8 km/h 6 km/h 82% 0.00 mm 0.00 W/m2
20:09 8.8 °C 5.9 °C 1012.6 hPa East 11 km/h 9 km/h 82% 0.00 mm 0.00 W/m2
20:14 8.7 °C 5.7 °C 1012.6 hPa East 13 km/h 10 km/h 82% 0.00 mm 0.00 W/m2
20:19 8.6 °C 5.7 °C 1012.5 hPa East 10 km/h 9 km/h 82% 0.00 mm 0.00 W/m2
20:24 8.6 °C 5.6 °C 1012.4 hPa East 15 km/h 11 km/h 82% 0.00 mm 0.00 W/m2
20:29 8.6 °C 5.5 °C 1012.5 hPa East 15 km/h 13 km/h 81% 0.00 mm 0.00 W/m2
20:34 8.6 °C 5.7 °C 1012.6 hPa East 19 km/h 15 km/h 82% 0.00 mm 0.00 W/m2
20:39 8.5 °C 5.6 °C 1012.6 hPa East 19 km/h 16 km/h 82% 0.00 mm 0.00 W/m2
20:44 8.5 °C 5.6 °C 1012.5 hPa East 15 km/h 11 km/h 82% 0.00 mm 0.00 W/m2
20:49 8.5 °C 5.6 °C 1012.4 hPa East 15 km/h 11 km/h 82% 0.00 mm 0.00 W/m2
20:54 8.4 °C 5.6 °C 1012.4 hPa East 17 km/h 13 km/h 82% 0.00 mm 0.00 W/m2
20:59 8.4 °C 5.7 °C 1012.4 hPa East 17 km/h 12 km/h 83% 0.00 mm 0.00 W/m2
21:04 8.4 °C 5.7 °C 1012.4 hPa East 19 km/h 17 km/h 83% 0.00 mm 0.00 W/m2
21:09 8.5 °C 5.7 °C 1012.4 hPa East 19 km/h 15 km/h 83% 0.00 mm 0.00 W/m2
21:14 8.5 °C 5.6 °C 1012.3 hPa East 17 km/h 14 km/h 82% 0.00 mm 0.00 W/m2
21:19 8.5 °C 5.6 °C 1012.3 hPa East 15 km/h 12 km/h 82% 0.00 mm 0.00 W/m2
21:24 8.5 °C 5.6 °C 1012.4 hPa East 13 km/h 10 km/h 82% 0.00 mm 0.00 W/m2
21:29 8.5 °C 5.6 °C 1012.3 hPa East 10 km/h 8 km/h 82% 0.00 mm 0.00 W/m2
21:34 8.5 °C 5.6 °C 1012.4 hPa East 8 km/h 7 km/h 82% 0.00 mm 0.00 W/m2
21:39 8.5 °C 5.6 °C 1012.4 hPa East 8 km/h 6 km/h 82% 0.00 mm 0.00 W/m2
21:44 8.6 °C 5.5 °C 1012.4 hPa East 10 km/h 8 km/h 81% 0.00 mm 0.00 W/m2
21:49 8.7 °C 5.6 °C 1012.3 hPa East 13 km/h 9 km/h 81% 0.00 mm 0.00 W/m2
21:54 8.7 °C 5.4 °C 1012.3 hPa East 21 km/h 18 km/h 80% 0.00 mm 0.00 W/m2
21:59 8.8 °C 5.4 °C 1012.1 hPa East 21 km/h 19 km/h 79% 0.00 mm 0.00 W/m2
22:04 8.8 °C 5.6 °C 1012.1 hPa East 24 km/h 21 km/h 80% 0.00 mm 0.00 W/m2
22:09 8.8 °C 5.7 °C 1012.0 hPa East 21 km/h 19 km/h 81% 0.00 mm 0.00 W/m2
22:14 8.9 °C 6.0 °C 1012.0 hPa ESE 24 km/h 20 km/h 82% 0.00 mm 0.00 W/m2
22:19 8.9 °C 6.0 °C 1011.9 hPa ESE 28 km/h 23 km/h 82% 0.00 mm 0.00 W/m2
22:24 8.9 °C 6.1 °C 1011.9 hPa ESE 24 km/h 23 km/h 82% 0.00 mm 0.00 W/m2
22:29 8.9 °C 6.2 °C 1011.9 hPa ESE 24 km/h 20 km/h 83% 0.00 mm 0.00 W/m2
22:34 8.9 °C 6.2 °C 1011.9 hPa ESE 21 km/h 14 km/h 83% 0.00 mm 0.00 W/m2
22:39 8.8 °C 6.1 °C 1011.7 hPa ESE 23 km/h 15 km/h 83% 0.00 mm 0.00 W/m2
22:44 8.8 °C 6.3 °C 1011.7 hPa ESE 22 km/h 17 km/h 84% 0.00 mm 0.00 W/m2
22:49 8.8 °C 6.3 °C 1011.7 hPa ESE 11 km/h 5 km/h 84% 0.00 mm 0.00 W/m2
22:54 8.7 °C 6.0 °C 1011.7 hPa ESE 11 km/h 4 km/h 83% 0.00 mm 0.00 W/m2
22:59 8.7 °C 6.1 °C 1011.5 hPa ESE 10 km/h 6 km/h 84% 0.00 mm 0.00 W/m2
23:04 8.7 °C 6.1 °C 1011.5 hPa ESE 15 km/h 4 km/h 84% 0.00 mm 0.00 W/m2
23:09 8.7 °C 6.1 °C 1011.5 hPa ESE 6 km/h 4 km/h 84% 0.00 mm 0.00 W/m2
23:14 8.7 °C 6.3 °C 1011.3 hPa ESE 10 km/h 6 km/h 85% 0.00 mm 0.00 W/m2
23:19 8.7 °C 6.3 °C 1011.3 hPa ESE 8 km/h 5 km/h 85% 0.00 mm 0.00 W/m2
23:24 8.7 °C 6.3 °C 1011.3 hPa ESE 7 km/h 5 km/h 85% 0.00 mm 0.00 W/m2
23:29 8.7 °C 6.3 °C 1011.2 hPa ESE 8 km/h 4 km/h 85% 0.00 mm 0.00 W/m2
23:34 8.7 °C 6.3 °C 1011.2 hPa ESE 8 km/h 5 km/h 85% 0.00 mm 0.00 W/m2
23:39 8.7 °C 6.3 °C 1011.1 hPa ESE 7 km/h 3 km/h 85% 0.00 mm 0.00 W/m2
23:44 8.7 °C 6.3 °C 1011.0 hPa ESE 15 km/h 9 km/h 85% 0.00 mm 0.00 W/m2
23:49 8.8 °C 6.4 °C 1010.9 hPa ESE 18 km/h 11 km/h 85% 0.00 mm 0.00 W/m2
Vejrstation Sortsø Strand
Compliments of Weather Underground - 2.25 mb

© 2006-2021 strandvejr.dk